This is the latest recevied weather packets stored in our database for station/object SV2GWY. If no packets are shown the sender has not sent any weather packets the latest 10 day(s).
| Time | Temp. | Humidity | Pressure | Rain* | Wind** | Luminosity | Snow |
|---|---|---|---|---|---|---|---|
| 1777191902 | 20.56° C | 50% | 1015.4 hPa | 0 mm | - | - | - |
| 1777190103 | 20° C | 53% | 1015.4 hPa | 0 mm | - | - | - |
| 1777185013 | 16.11° C | 67% | 1015.7 hPa | 0 mm | - | - | - |
| 1777183803 | 15.56° C | 71% | 1015.8 hPa | 0 mm | - | - | - |
| 1777182003 | 15.56° C | 69% | 1015.6 hPa | 0 mm | - | - | - |
| 1777181103 | 16.11° C | 67% | 1015.6 hPa | 0 mm | - | - | - |
| 1777178404 | 12.22° C | 72% | 1015.5 hPa | 0 mm | - | - | - |
| 1777177216 | 10° C | 79% | 1015.4 hPa | 0 mm | - | - | - |
| 1777175405 | 8.33° C | 81% | 1015.1 hPa | 0 mm | - | - | - |
| 1777174214 | 8.33° C | 82% | 1014.9 hPa | 0 mm | - | - | - |
| 1777173905 | 8.33° C | 81% | 1014.9 hPa | 0 mm | - | - | - |
| 1777171514 | 8.89° C | 79% | 1014.6 hPa | 0 mm | - | - | - |
| 1777170306 | 8.89° C | 79% | 1014.8 hPa | 0 mm | - | - | - |
| 1777169714 | 8.89° C | 79% | 1014.8 hPa | 0 mm | - | - | - |
| 1777169104 | 8.89° C | 78% | 1014.8 hPa | 0 mm | - | - | - |
| 1777167305 | 8.33° C | 79% | 1014.8 hPa | 0 mm | - | - | - |
| 1777165805 | 8.33° C | 79% | 1014.6 hPa | 0 mm | - | - | - |
| 1777160715 | 9.44° C | 73% | 1015 hPa | 0 mm | - | - | - |
| 1777160405 | 9.44° C | 72% | 1014.9 hPa | 0 mm | - | - | - |
| 1777160106 | 9.44° C | 72% | 1014.9 hPa | 0 mm | - | - | - |
| 1777159216 | 10° C | 69% | 1015 hPa | 0 mm | - | - | - |
| 1777157115 | 10.56° C | 67% | 1015.3 hPa | 0 mm | - | - | - |
| 1777156215 | 10.56° C | 67% | 1015.3 hPa | 0 mm | - | - | - |
| 1777153807 | 10.56° C | 70% | 1015.4 hPa | 0 mm | - | - | - |
| 1777153515 | 10.56° C | 70% | 1015.3 hPa | 0 mm | - | - | - |
* Rain latest hour (hover to see other rain measurements)
** Current wind speed in m/s (hover to see current wind gust speed)